Time,TemperatureF,DewpointF,PressureIn,WindDirection,WindDirectionDegrees,WindSpeedMPH,WindSpeedGustMPH,Humidity,HourlyPrecipIn,Conditions,Clouds,dailyrainin,SolarRadiationWatts/m^2,SoftwareType,DateUTC
2013-01-03 00:00:00,21.0,16.0,-100.00,SSW,202,5.0,-999.0,80,-99.99,,,-99.99,0.000000,,2013-01-03 05:00:00,
2013-01-03 00:33:00,21.0,16.0,-100.00,SSW,202,5.0,-999.0,80,-99.99,,,-99.99,0.000000,,2013-01-03 05:33:00,
2013-01-03 00:42:00,21.0,16.0,-100.00,SSW,202,5.0,-999.0,80,-99.99,,,-99.99,0.000000,,2013-01-03 05:42:00,
2013-01-03 00:53:00,21.0,16.0,-100.00,SSW,202,5.0,-999.0,80,-99.99,,,-99.99,0.000000,,2013-01-03 05:53:00,
2013-01-03 03:00:00,17.0,13.0,-100.00,SSW,202,5.0,-999.0,81,-99.99,,,-99.99,0.000000,,2013-01-03 08:00:00,
2013-01-03 03:43:00,17.0,13.0,-100.00,SSW,202,5.0,-999.0,81,-99.99,,,-99.99,0.000000,,2013-01-03 08:43:00,
2013-01-03 03:53:00,17.0,13.0,-100.00,SSW,202,5.0,-999.0,81,-99.99,,,-99.99,0.000000,,2013-01-03 08:53:00,
2013-01-03 06:00:00,14.0,4.0,-100.00,SW,225,5.0,-999.0,62,-99.99,,,-99.99,0.000000,,2013-01-03 11:00:00,
2013-01-03 06:43:00,14.0,4.0,-100.00,SW,225,5.0,-999.0,62,-99.99,,,-99.99,0.000000,,2013-01-03 11:43:00,
2013-01-03 06:53:00,14.0,4.0,-100.00,SW,225,5.0,-999.0,62,-99.99,,,-99.99,0.000000,,2013-01-03 11:53:00,
2013-01-03 09:00:00,15.0,6.0,-100.00,SW,225,4.0,-999.0,66,-99.99,,,-99.99,10.440000,,2013-01-03 14:00:00,
2013-01-03 09:33:00,15.0,6.0,-100.00,SW,225,4.0,-999.0,66,-99.99,,,-99.99,10.440000,,2013-01-03 14:33:00,
2013-01-03 09:43:00,15.0,6.0,-100.00,SW,225,4.0,-999.0,66,-99.99,,,-99.99,10.440000,,2013-01-03 14:43:00,
2013-01-03 09:53:00,15.0,6.0,-100.00,SW,225,4.0,-999.0,66,-99.99,,,-99.99,10.440000,,2013-01-03 14:53:00,
2013-01-03 12:00:00,20.0,12.0,-100.00,SW,225,6.0,-999.0,72,-99.99,,,-99.99,96.279999,,2013-01-03 17:00:00,
2013-01-03 12:43:00,20.0,12.0,-100.00,SW,225,6.0,-999.0,72,-99.99,,,-99.99,96.279999,,2013-01-03 17:43:00,
2013-01-03 12:53:00,20.0,12.0,-100.00,SW,225,6.0,-999.0,72,-99.99,,,-99.99,96.279999,,2013-01-03 17:53:00,
2013-01-03 15:00:00,25.0,20.0,-100.00,WSW,247,6.0,-999.0,80,-99.99,,,-99.99,42.919998,,2013-01-03 20:00:00,
2013-01-03 15:43:00,25.0,20.0,-100.00,WSW,247,6.0,-999.0,80,-99.99,,,-99.99,42.919998,,2013-01-03 20:43:00,
2013-01-03 15:53:00,25.0,20.0,-100.00,WSW,247,6.0,-999.0,80,-99.99,,,-99.99,42.919998,,2013-01-03 20:53:00,
2013-01-03 18:00:00,26.0,22.0,-100.00,WSW,247,7.0,-999.0,84,-99.99,,,-99.99,0.000000,,2013-01-03 23:00:00,
2013-01-03 18:43:00,26.0,22.0,-100.00,WSW,247,7.0,-999.0,84,-99.99,,,-99.99,0.000000,,2013-01-03 23:43:00,
2013-01-03 18:53:00,26.0,22.0,-100.00,WSW,247,7.0,-999.0,84,-99.99,,,-99.99,0.000000,,2013-01-03 23:53:00,
2013-01-03 21:00:00,26.0,21.0,-100.00,WNW,292,6.0,-999.0,79,-99.99,,,-99.99,0.000000,,2013-01-04 02:00:00,
2013-01-03 21:33:00,26.0,21.0,-100.00,WNW,292,6.0,-999.0,79,-99.99,,,-99.99,0.000000,,2013-01-04 02:33:00,
2013-01-03 21:43:00,26.0,21.0,-100.00,WNW,292,6.0,-999.0,79,-99.99,,,-99.99,0.000000,,2013-01-04 02:43:00,
2013-01-03 21:53:00,26.0,21.0,-100.00,WNW,292,6.0,-999.0,79,-99.99,,,-99.99,0.000000,,2013-01-04 02:53:00,